createdAt,value
2019-01-15T00:00:56.080Z,1.73
2019-01-15T00:03:27.116Z,2.07
2019-01-15T00:08:56.379Z,1.97
2019-01-15T00:14:36.371Z,1.53
2019-01-15T00:17:07.385Z,1.97
2019-01-15T00:19:57.700Z,1.97
2019-01-15T00:22:47.839Z,2.10
2019-01-15T00:25:38.017Z,2.00
2019-01-15T00:28:09.035Z,1.77
2019-01-15T00:30:40.036Z,1.77
2019-01-15T00:33:30.169Z,1.80
2019-01-15T00:39:15.387Z,1.60
2019-01-15T00:42:05.655Z,2.03
2019-01-15T00:44:36.607Z,1.80
2019-01-15T00:47:26.889Z,2.00
2019-01-15T00:50:17.015Z,2.03
2019-01-15T00:52:47.913Z,2.27
2019-01-15T00:55:38.119Z,2.10
2019-01-15T00:58:09.106Z,2.87
2019-01-15T01:00:59.297Z,1.93
2019-01-15T01:03:49.443Z,1.77
2019-01-15T01:06:39.571Z,2.23
2019-01-15T01:09:50.382Z,1.87
2019-01-15T01:12:40.459Z,2.00
2019-01-15T01:15:51.297Z,2.27
2019-01-15T01:21:31.340Z,1.93
2019-01-15T01:27:11.312Z,1.80
2019-01-15T01:33:31.109Z,1.80
2019-01-15T01:36:21.224Z,2.53
2019-01-15T01:38:52.222Z,1.70
2019-01-15T01:41:23.176Z,1.87
2019-01-15T01:46:44.163Z,1.83
2019-01-15T01:49:34.462Z,1.70
2019-01-15T01:52:24.627Z,1.70
2019-01-15T01:55:14.715Z,1.67
2019-01-15T01:58:25.536Z,2.30
2019-01-15T02:01:15.746Z,1.40
2019-01-15T02:03:46.696Z,1.90
2019-01-15T02:06:36.929Z,1.60
2019-01-15T02:09:47.768Z,1.60
2019-01-15T02:15:48.444Z,1.70
2019-01-15T02:18:38.552Z,1.70
2019-01-15T02:21:28.837Z,1.60
2019-01-15T02:24:19.435Z,2.37
2019-01-15T02:30:26.301Z,1.40
2019-01-15T02:33:16.348Z,1.60
2019-01-15T02:35:47.370Z,1.80
2019-01-15T02:38:37.373Z,2.20
2019-01-15T02:41:27.361Z,1.87
2019-01-15T02:44:17.638Z,2.00
2019-01-15T02:46:48.515Z,1.80
2019-01-15T02:49:38.584Z,2.37
2019-01-15T02:52:28.671Z,1.33
2019-01-15T02:54:59.614Z,1.63
2019-01-15T03:04:38.963Z,1.87
2019-01-15T03:07:29.082Z,1.50
2019-01-15T03:10:00.248Z,1.60
2019-01-15T03:16:00.942Z,1.47
2019-01-15T03:18:51.205Z,1.63
2019-01-15T03:21:22.165Z,1.80
2019-01-15T03:24:31.424Z,1.80
2019-01-15T03:27:02.587Z,1.40
2019-01-15T03:29:33.549Z,1.53
2019-01-15T03:32:44.358Z,1.50
2019-01-15T03:38:45.003Z,1.90
2019-01-15T03:44:05.891Z,1.90
2019-01-15T03:46:55.974Z,2.10
2019-01-15T03:49:26.944Z,1.90
2019-01-15T03:52:17.203Z,1.80
2019-01-15T03:55:47.155Z,1.93
2019-01-15T03:58:37.345Z,1.50
2019-01-15T04:01:27.557Z,2.20
2019-01-15T04:06:48.352Z,2.17
2019-01-15T04:13:11.393Z,1.93
2019-01-15T04:16:38.460Z,1.83
2019-01-15T04:19:28.610Z,1.80
2019-01-15T04:28:03.783Z,2.03
2019-01-15T04:30:34.795Z,2.00
2019-01-15T04:33:24.875Z,1.80
2019-01-15T04:36:15.012Z,1.50
2019-01-15T04:39:05.141Z,2.27
2019-01-15T04:41:36.109Z,1.90
2019-01-15T04:44:07.117Z,1.83
2019-01-15T04:50:51.475Z,2.07
2019-01-15T04:53:41.692Z,2.47
2019-01-15T05:00:20.948Z,2.63
2019-01-15T05:03:11.613Z,1.80
2019-01-15T05:06:01.836Z,2.07
2019-01-15T05:08:52.071Z,1.57
2019-01-15T05:14:56.853Z,2.03
2019-01-15T05:17:46.989Z,2.10
2019-01-15T05:20:57.770Z,2.23
2019-01-15T05:23:48.064Z,1.90
2019-01-15T05:26:19.001Z,1.97
2019-01-15T05:31:40.161Z,2.20
2019-01-15T05:40:35.271Z,2.13
2019-01-15T05:43:44.569Z,2.20
2019-01-15T05:46:15.499Z,2.17
2019-01-15T05:49:05.696Z,2.33
2019-01-15T05:51:55.977Z,2.60
2019-01-15T05:54:45.992Z,2.60
2019-01-15T05:57:36.263Z,2.17
2019-01-15T06:01:06.218Z,2.20
2019-01-15T06:04:16.992Z,1.70
2019-01-15T06:07:07.127Z,1.90
2019-01-15T06:09:57.480Z,1.80
2019-01-15T06:12:28.438Z,2.30
2019-01-15T06:15:18.637Z,1.80
2019-01-15T06:18:29.482Z,2.60
2019-01-15T06:21:00.336Z,3.20
2019-01-15T06:23:50.531Z,2.70
2019-01-15T06:26:21.506Z,2.10
2019-01-15T06:29:30.655Z,2.20
2019-01-15T06:32:20.844Z,1.83
2019-01-15T06:35:50.722Z,2.57
2019-01-15T06:38:40.929Z,2.10
2019-01-15T06:41:51.759Z,2.10
2019-01-15T06:44:42.049Z,2.00
2019-01-15T06:47:32.255Z,2.00
2019-01-15T06:50:22.583Z,2.47
2019-01-15T06:56:28.836Z,2.10
2019-01-15T07:02:14.629Z,1.60
2019-01-15T07:05:04.726Z,2.03
2019-01-15T07:07:54.801Z,2.10
2019-01-15T07:11:05.619Z,1.73
2019-01-15T07:13:57.134Z,1.90
2019-01-15T07:17:06.716Z,1.97
2019-01-15T07:19:56.856Z,1.90
2019-01-15T07:23:06.210Z,1.93
2019-01-15T07:25:37.439Z,1.97
2019-01-15T07:28:48.300Z,2.10
2019-01-15T07:34:28.386Z,1.47
2019-01-15T07:37:18.505Z,2.00
2019-01-15T07:40:48.422Z,1.80
2019-01-15T07:43:38.683Z,2.30
2019-01-15T07:46:09.698Z,2.00
2019-01-15T07:48:40.643Z,2.10
2019-01-15T07:54:01.635Z,2.20
2019-01-15T07:56:51.745Z,2.00
2019-01-15T07:59:42.051Z,2.40
2019-01-15T08:04:52.856Z,2.47
2019-01-15T08:07:43.081Z,2.07
2019-01-15T08:10:57.157Z,2.20
2019-01-15T08:17:19.283Z,1.80
2019-01-15T08:19:50.199Z,2.33
2019-01-15T08:22:21.219Z,1.97
2019-01-15T08:25:11.317Z,2.60
2019-01-15T08:27:42.338Z,2.23
2019-01-15T08:30:51.835Z,1.97
2019-01-15T08:33:41.960Z,2.30
2019-01-15T08:36:13.017Z,2.70
2019-01-15T08:41:53.062Z,2.53
2019-01-15T08:44:43.359Z,2.40
2019-01-15T08:47:34.370Z,2.60
2019-01-15T08:50:45.157Z,2.83
2019-01-15T08:57:10.427Z,2.83
2019-01-15T08:59:41.315Z,3.10
2019-01-15T09:02:12.370Z,3.13
2019-01-15T09:04:43.390Z,2.90
2019-01-15T09:07:14.262Z,3.10
2019-01-15T09:10:04.415Z,3.40
2019-01-15T09:12:35.366Z,2.90
2019-01-15T09:15:25.575Z,3.07
2019-01-15T09:17:56.513Z,3.70
2019-01-15T09:21:07.276Z,3.03
2019-01-15T09:26:49.171Z,3.30
2019-01-15T09:29:39.176Z,2.50
2019-01-15T09:35:43.910Z,3.67
2019-01-15T09:41:31.077Z,3.37
2019-01-15T09:47:35.413Z,2.63
2019-01-15T09:50:46.225Z,2.90
2019-01-15T09:53:17.355Z,3.00
2019-01-15T09:56:07.673Z,2.63
2019-01-15T09:58:38.717Z,2.87
2019-01-15T10:01:28.962Z,2.97
2019-01-15T10:04:19.286Z,2.77
2019-01-15T10:06:50.405Z,3.30
2019-01-15T10:09:40.562Z,3.20
2019-01-15T10:15:01.641Z,3.23
2019-01-15T10:17:32.682Z,2.63
2019-01-15T10:23:39.002Z,2.97
2019-01-15T10:26:29.171Z,2.57
2019-01-15T10:32:29.930Z,2.60
2019-01-15T10:35:40.733Z,3.30
2019-01-15T10:38:30.925Z,2.63
2019-01-15T10:41:41.718Z,2.90
2019-01-15T10:47:46.528Z,3.20
2019-01-15T10:51:16.414Z,3.30
2019-01-15T10:54:06.605Z,2.93
2019-01-15T10:56:56.831Z,2.73
2019-01-15T10:59:46.939Z,3.03
2019-01-15T11:02:37.287Z,3.20
2019-01-15T11:05:27.384Z,3.00
2019-01-15T11:07:58.303Z,2.87
2019-01-15T11:10:48.542Z,2.80
2019-01-15T11:13:19.524Z,2.80
2019-01-15T11:18:59.522Z,2.67
2019-01-15T11:24:39.662Z,2.63
2019-01-15T11:27:29.950Z,2.97
2019-01-15T11:30:39.289Z,2.80
2019-01-15T11:33:29.384Z,2.83
2019-01-15T11:36:00.335Z,2.73
2019-01-15T11:38:50.463Z,3.03
2019-01-15T11:41:59.864Z,3.40
2019-01-15T11:44:50.082Z,2.70
2019-01-15T11:47:59.405Z,2.70
2019-01-15T11:50:49.742Z,3.60
2019-01-15T11:53:39.874Z,3.00
2019-01-15T11:56:10.876Z,3.40
2019-01-15T12:05:47.234Z,2.90
2019-01-15T12:08:37.176Z,2.93
2019-01-15T12:11:27.261Z,3.00
2019-01-15T12:17:26.480Z,2.47
2019-01-15T12:23:27.261Z,3.00
2019-01-15T12:26:38.044Z,2.93
2019-01-15T12:33:25.519Z,3.40
2019-01-15T12:36:55.656Z,2.97
2019-01-15T12:40:05.494Z,3.40
2019-01-15T12:43:16.312Z,2.90
2019-01-15T12:46:25.874Z,3.27
2019-01-15T12:49:15.954Z,3.20
2019-01-15T12:52:26.850Z,3.17
2019-01-15T12:58:48.597Z,2.93
2019-01-15T13:01:58.372Z,3.40
2019-01-15T13:04:48.539Z,3.10
2019-01-15T13:07:41.580Z,2.70
2019-01-15T13:10:52.235Z,2.63
2019-01-15T13:14:01.390Z,2.83
2019-01-15T13:16:51.452Z,2.67
2019-01-15T13:22:52.387Z,3.10
2019-01-15T13:28:53.230Z,3.07
2019-01-15T13:31:43.359Z,3.00
2019-01-15T13:35:11.883Z,3.70
2019-01-15T13:38:21.463Z,3.20
2019-01-15T13:48:03.267Z,3.70
2019-01-15T13:51:12.739Z,3.90
2019-01-15T13:57:02.749Z,3.50
2019-01-15T14:03:03.597Z,3.37
2019-01-15T14:09:23.701Z,4.43
2019-01-15T14:12:15.767Z,4.00
2019-01-15T14:15:20.679Z,4.43
2019-01-15T14:18:36.153Z,3.43
2019-01-15T14:25:22.606Z,4.37
2019-01-15T14:28:50.993Z,3.83
2019-01-15T14:34:49.997Z,4.40
2019-01-15T14:44:31.803Z,4.40
2019-01-15T14:47:22.019Z,5.17
2019-01-15T14:56:58.343Z,4.53
2019-01-15T15:03:37.775Z,3.93
2019-01-15T15:06:28.014Z,3.50
2019-01-15T15:12:34.443Z,4.10
2019-01-15T15:15:45.218Z,4.30
2019-01-15T15:18:54.473Z,4.00
2019-01-15T15:22:03.820Z,4.07
2019-01-15T15:28:09.828Z,4.30
2019-01-15T15:31:19.282Z,3.43
2019-01-15T15:37:39.097Z,3.60
2019-01-15T15:47:14.696Z,3.43
2019-01-15T15:50:44.557Z,3.40
2019-01-15T15:53:34.558Z,3.43
2019-01-15T15:56:45.478Z,3.30
2019-01-15T15:59:35.550Z,2.83
2019-01-15T16:02:44.941Z,2.97
2019-01-15T16:05:54.230Z,2.87
2019-01-15T16:08:44.406Z,3.07
2019-01-15T16:14:50.462Z,3.90
2019-01-15T16:17:40.615Z,3.27
2019-01-15T16:20:51.421Z,3.93
2019-01-15T16:26:28.180Z,3.37
2019-01-15T16:29:18.323Z,3.80
2019-01-15T16:32:29.165Z,3.97
2019-01-15T16:38:54.357Z,4.30
2019-01-15T16:41:44.335Z,4.13
2019-01-15T16:48:10.776Z,4.40
2019-01-15T16:51:20.046Z,4.33
2019-01-15T16:54:10.041Z,4.63
2019-01-15T17:04:12.114Z,4.57
2019-01-15T17:11:18.263Z,4.57
2019-01-15T17:14:27.545Z,4.97
2019-01-15T17:17:17.701Z,4.83
2019-01-15T17:20:07.964Z,5.37
2019-01-15T17:23:17.404Z,4.20
2019-01-15T17:26:07.751Z,5.80
2019-01-15T17:32:55.345Z,5.57
2019-01-15T17:35:45.440Z,5.00
2019-01-15T17:38:54.691Z,4.20
2019-01-15T17:45:21.954Z,4.80
2019-01-15T17:51:47.424Z,5.50
2019-01-15T17:58:28.618Z,4.43
2019-01-15T18:04:46.631Z,4.17
2019-01-15T18:07:36.829Z,4.43
2019-01-15T18:10:46.531Z,4.40
2019-01-15T18:13:57.434Z,4.80
2019-01-15T18:17:08.431Z,4.43
2019-01-15T18:20:17.725Z,5.13
2019-01-15T18:23:07.803Z,4.20
2019-01-15T18:32:44.141Z,4.50
2019-01-15T18:35:34.308Z,4.27
2019-01-15T18:38:45.574Z,4.63
2019-01-15T18:42:15.046Z,4.63
2019-01-15T18:45:05.044Z,5.30
2019-01-15T18:48:14.366Z,4.83
2019-01-15T18:51:04.465Z,4.80
2019-01-15T18:57:49.589Z,3.87
2019-01-15T19:00:39.696Z,4.23
2019-01-15T19:07:24.714Z,4.17
2019-01-15T19:10:14.841Z,4.40
2019-01-15T19:19:51.138Z,4.60
2019-01-15T19:26:11.051Z,4.53
2019-01-15T19:32:31.049Z,4.73
2019-01-15T19:35:21.160Z,5.13
2019-01-15T19:38:11.182Z,4.87
2019-01-15T19:48:11.379Z,4.83
2019-01-15T19:51:20.732Z,4.43
2019-01-15T19:54:29.868Z,4.13
2019-01-15T19:57:20.047Z,4.80
2019-01-15T20:00:10.137Z,5.00
2019-01-15T20:03:00.271Z,4.23
2019-01-15T20:05:50.400Z,4.50
2019-01-15T20:08:59.748Z,4.77
2019-01-15T20:12:09.202Z,4.33
2019-01-15T20:14:59.344Z,4.27
2019-01-15T20:18:08.599Z,4.17
2019-01-15T20:23:41.175Z,4.70
2019-01-15T20:26:31.499Z,4.10
2019-01-15T20:29:40.808Z,4.33
2019-01-15T20:35:47.143Z,4.07
2019-01-15T20:48:58.239Z,4.33
2019-01-15T20:51:48.334Z,4.97
2019-01-15T20:54:57.557Z,4.97
2019-01-15T20:57:47.669Z,5.23
2019-01-15T21:00:37.887Z,5.30
2019-01-15T21:03:27.964Z,4.50
2019-01-15T21:10:31.972Z,5.03
2019-01-15T21:13:41.305Z,4.67
2019-01-15T21:16:50.570Z,4.80
2019-01-15T21:19:40.778Z,5.13
2019-01-15T21:22:31.975Z,4.97
2019-01-15T21:26:01.926Z,5.50
2019-01-15T21:28:52.119Z,4.77
2019-01-15T21:34:25.460Z,5.27
2019-01-15T21:37:15.572Z,5.13
2019-01-15T21:40:05.717Z,5.37
2019-01-15T21:42:55.809Z,4.87
2019-01-15T21:46:06.612Z,4.77
2019-01-15T21:49:08.974Z,4.67
2019-01-15T21:52:18.230Z,5.23
2019-01-15T21:55:27.509Z,4.80
2019-01-15T21:58:17.625Z,4.63
2019-01-15T22:01:27.610Z,5.47
2019-01-15T22:04:56.155Z,5.17
2019-01-15T22:07:46.252Z,5.43
2019-01-15T22:10:55.602Z,5.33
2019-01-15T22:20:31.642Z,5.10
2019-01-15T22:23:21.661Z,4.90
2019-01-15T22:26:32.655Z,4.30
2019-01-15T22:29:41.980Z,4.83
2019-01-15T22:36:27.014Z,3.93
2019-01-15T22:46:08.631Z,4.83
2019-01-15T22:49:18.181Z,4.03
2019-01-15T22:55:38.090Z,3.80
2019-01-15T22:58:47.397Z,4.20
2019-01-15T23:01:58.200Z,4.03
2019-01-15T23:05:07.501Z,4.27
2019-01-15T23:08:16.844Z,4.07
2019-01-15T23:11:26.196Z,4.30
2019-01-15T23:14:36.985Z,4.50
2019-01-15T23:21:02.688Z,3.83
2019-01-15T23:23:52.663Z,4.30
2019-01-15T23:27:01.986Z,4.00
2019-01-15T23:29:52.107Z,3.80
2019-01-15T23:33:01.366Z,4.10
2019-01-15T23:36:10.756Z,4.27
2019-01-15T23:42:35.782Z,3.87
2019-01-15T23:45:46.579Z,4.10
2019-01-15T23:48:36.714Z,4.30
2019-01-15T23:51:26.768Z,4.13
2019-01-15T23:54:36.026Z,4.90
2019-01-15T23:57:26.152Z,4.27
